Time;durP1;ratioP1;P1;durP2;ratioP2;P2;SDS_P1;SDS_P2;PMS_P1;PMS_P2;Temp;Humidity;BMP_temperature;BMP_pressure;BME280_temperature;BME280_humidity;BME280_pressure;Samples;Min_cycle;Max_cycle;Signal;HPM_P1;HPM_P2
2021/12/25 00:03:00;;;;;;;3.77;3.45;;;;;;;-1.06;81.12;99004.52;3442888;80;20983;-73
2021/12/25 00:07:51;;;;;;;8.15;3.22;;;;;;;-1.16;81.19;99022.47;3496934;80;21121;-72
2021/12/25 00:12:42;;;;;;;3.58;3.10;;;;;;;-1.20;81.03;99032.49;3482344;80;20975;-72
2021/12/25 00:17:33;;;;;;;3.45;2.98;;;;;;;-1.29;80.56;99053.41;3457101;80;21006;-72
2021/12/25 00:22:24;;;;;;;3.52;2.72;;;;;;;-1.35;80.39;99065.95;3414107;80;25540;-72
2021/12/25 00:37:10;;;;;;;4.20;3.30;;;;;;;-1.63;80.37;99112.44;3496759;80;28206;-74
2021/12/25 00:42:02;;;;;;;3.35;2.70;;;;;;;-1.67;80.38;99123.33;3484687;80;20900;-74
2021/12/25 00:46:53;;;;;;;3.45;2.90;;;;;;;-1.68;80.56;99135.20;3410064;80;20967;-75
2021/12/25 00:51:45;;;;;;;4.80;3.50;;;;;;;-1.69;79.76;99147.47;3437083;80;26619;-75
2021/12/25 00:56:37;;;;;;;4.10;2.80;;;;;;;-1.76;79.94;99164.17;3460464;80;22000;-75
2021/12/25 01:01:28;;;;;;;3.37;2.58;;;;;;;-1.83;79.74;99180.43;3438994;80;21460;-74
2021/12/25 01:06:19;;;;;;;2.62;2.42;;;;;;;-1.99;79.82;99195.06;3421082;80;20963;-74
2021/12/25 01:11:10;;;;;;;2.75;2.33;;;;;;;-2.08;79.72;99207.81;3461912;80;21026;-72
2021/12/25 01:31:22;;;;;;;2.40;2.20;;;;;;;-2.19;79.63;99250.64;3462661;80;21437;-72
2021/12/25 01:41:41;;;;;;;;;;;;;;;-2.32;79.65;99284.47;3403781;80;20985;-73
2021/12/25 01:51:29;;;;;;;3.65;2.42;;;;;;;-2.33;79.66;99303.07;3505091;79;21010;-71
2021/12/25 01:56:20;;;;;;;5.10;2.62;;;;;;;-2.32;79.71;99307.37;3507263;79;21483;-71
2021/12/25 02:01:11;;;;;;;3.83;1.72;;;;;;;-2.34;79.46;99319.17;3491824;79;20956;-71
2021/12/25 02:06:08;;;;;;;2.33;2.10;;;;;;;-2.36;79.31;99324.97;3446129;79;21250;-71
2021/12/25 02:10:59;;;;;;;2.33;1.57;;;;;;;-2.43;79.53;99338.22;3439427;79;21519;-70
2021/12/25 02:15:55;;;;;;;3.52;2.17;;;;;;;-2.45;79.21;99343.27;3484945;79;21109;-72
2021/12/25 02:20:57;;;;;;;3.93;1.80;;;;;;;-2.58;78.55;99367.24;3440027;81;21440;-71
2021/12/25 02:25:41;;;;;;;1.80;1.50;;;;;;;-2.72;78.33;99369.53;3379971;82;21435;-71
2021/12/25 02:30:33;;;;;;;2.85;1.50;;;;;;;-2.89;78.04;99397.98;3384663;82;20955;-72
2021/12/25 02:35:27;;;;;;;2.40;1.35;;;;;;;-2.99;78.09;99408.48;3393754;81;22089;-72
2021/12/25 02:40:18;;;;;;;2.87;1.40;;;;;;;-3.11;77.84;99421.47;3393872;81;21045;-72
2021/12/25 02:45:16;;;;;;;2.37;1.35;;;;;;;-3.26;77.83;99429.17;3379364;81;21015;-70
2021/12/25 02:50:04;;;;;;;3.02;1.22;;;;;;;-3.40;77.66;99442.84;3387364;83;20978;-71
2021/12/25 02:54:55;;;;;;;1.75;0.85;;;;;;;-3.55;77.71;99444.20;3425919;82;20986;-70
2021/12/25 02:59:46;;;;;;;1.07;0.80;;;;;;;-3.72;77.61;99462.34;3412449;82;27656;-71
2021/12/25 03:04:40;;;;;;;3.55;1.15;;;;;;;-3.84;77.47;99470.19;3363786;83;20936;-71
2021/12/25 03:09:32;;;;;;;2.12;1.00;;;;;;;-3.95;77.84;99472.15;3367605;83;20991;-71
2021/12/25 03:14:36;;;;;;;2.95;1.72;;;;;;;-3.99;77.77;99480.37;3364525;82;21631;-72
2021/12/25 03:19:31;;;;;;;6.80;1.40;;;;;;;-4.04;78.01;99485.62;3395837;82;20947;-71
2021/12/25 03:24:17;;;;;;;3.45;1.65;;;;;;;-4.16;77.69;99483.66;3346085;82;21131;-72
2021/12/25 03:29:08;;;;;;;1.80;1.20;;;;;;;-4.28;77.67;99498.66;3381506;82;21022;-71
2021/12/25 03:33:59;;;;;;;1.50;0.90;;;;;;;-4.34;77.46;99516.50;3401369;83;20990;-72
2021/12/25 03:38:51;;;;;;;3.90;1.55;;;;;;;-4.41;77.41;99520.34;3384242;83;25368;-71
2021/12/25 03:43:43;;;;;;;3.47;1.50;;;;;;;-4.50;77.29;99531.23;3363862;83;20915;-71
2021/12/25 03:58:43;;;;;;;2.98;1.75;;;;;;;-4.70;77.55;99551.24;3372028;83;20950;-71
2021/12/25 04:03:50;;;;;;;2.87;1.40;;;;;;;-4.75;77.25;99565.71;3357621;83;21774;-71
2021/12/25 04:08:46;;;;;;;5.10;1.60;;;;;;;-4.86;77.24;99566.34;3416455;82;20951;-72
2021/12/25 04:13:36;;;;;;;3.58;1.50;;;;;;;-4.89;77.43;99570.82;3394233;82;21118;-70
2021/12/25 04:18:27;;;;;;;4.58;1.47;;;;;;;-4.94;77.42;99591.62;3402218;83;27173;-71
2021/12/25 04:23:24;;;;;;;4.65;2.15;;;;;;;-5.04;77.22;99598.67;3391698;82;21464;-72
2021/12/25 04:28:28;;;;;;;3.27;1.30;;;;;;;-5.10;77.39;99618.56;3425577;81;20930;-71
2021/12/25 05:04:16;;;;;;;4.92;1.30;;;;;;;-5.64;76.83;99680.19;3374815;81;21228;-72
2021/12/25 05:09:05;;;;;;;3.20;1.67;;;;;;;-5.73;76.59;99683.00;3409930;81;21276;-71
2021/12/25 05:13:57;;;;;;;1.90;1.35;;;;;;;-5.80;76.74;99686.78;3402693;82;22038;-70
2021/12/25 05:18:51;;;;;;;3.50;1.17;;;;;;;-5.85;76.58;99698.26;3381639;81;22005;-71
2021/12/25 05:23:42;;;;;;;3.00;1.65;;;;;;;-5.90;76.61;99696.20;3354665;81;20959;-71
2021/12/25 05:28:45;;;;;;;2.67;1.95;;;;;;;-5.95;76.64;99697.19;3330453;82;21471;-71
2021/12/25 05:33:31;;;;;;;2.52;1.25;;;;;;;-5.98;76.56;99705.87;3398563;81;20950;-71
2021/12/25 05:38:25;;;;;;;4.75;1.47;;;;;;;-6.05;76.35;99720.16;3376106;81;20979;-71
2021/12/25 05:43:18;;;;;;;2.98;1.62;;;;;;;-6.12;76.49;99728.12;3432750;81;21209;-72
2021/12/25 05:48:11;;;;;;;4.15;1.80;;;;;;;-6.19;76.45;99739.47;3407925;81;21206;-71
2021/12/25 05:53:10;;;;;;;2.33;1.98;;;;;;;-6.25;76.47;99731.08;3365561;82;21453;-71
2021/12/25 05:58:18;;;;;;;6.92;2.30;;;;;;;-6.30;76.49;99737.48;3374006;81;20990;-71
2021/12/25 06:03:29;;;;;;;6.55;2.65;;;;;;;-6.34;76.37;99748.17;3427449;81;21014;-71
2021/12/25 06:08:21;;;;;;;4.65;2.37;;;;;;;-6.36;76.49;99769.96;3400514;81;20952;-71
2021/12/25 06:13:17;;;;;;;5.08;2.27;;;;;;;-6.41;76.40;99776.35;3350226;82;20974;-71
2021/12/25 06:18:27;;;;;;;6.83;2.65;;;;;;;-6.48;76.51;99781.76;3424235;81;22024;-71
2021/12/25 06:23:23;;;;;;;4.42;1.82;;;;;;;-6.50;76.57;99792.16;3447922;81;21483;-72
2021/12/25 06:28:16;;;;;;;4.97;3.12;;;;;;;-6.56;76.58;99804.86;3472753;81;20953;-70
2021/12/25 06:33:08;;;;;;;4.67;2.92;;;;;;;-6.59;76.55;99812.63;3473823;79;20982;-72
2021/12/25 06:38:18;;;;;;;5.35;3.20;;;;;;;-6.67;76.44;99818.41;3472531;81;20911;-72
2021/12/25 06:43:14;;;;;;;3.52;2.65;;;;;;;-6.77;76.42;99819.79;3471618;81;20923;-71
2021/12/25 06:48:05;;;;;;;5.10;2.58;;;;;;;-6.87;76.30;99823.69;3469130;79;20934;-71
2021/12/25 06:53:01;;;;;;;5.53;2.87;;;;;;;-6.95;76.49;99827.80;3429135;80;20978;-71
2021/12/25 06:58:12;;;;;;;4.40;2.30;;;;;;;-6.98;76.27;99835.55;3459471;80;20966;-73
2021/12/25 07:03:03;;;;;;;7.92;4.25;;;;;;;-7.06;76.20;99840.06;3435955;81;21224;-73
2021/12/25 07:08:08;;;;;;;5.22;2.72;;;;;;;-7.12;76.41;99834.55;3341185;83;20988;-73
2021/12/25 07:13:16;;;;;;;5.60;3.02;;;;;;;-7.14;76.24;99842.41;3371141;83;21005;-73
2021/12/25 07:18:08;;;;;;;5.87;2.42;;;;;;;-7.18;76.22;99856.85;3360141;83;21095;-72
2021/12/25 07:23:18;;;;;;;5.12;3.27;;;;;;;-7.25;75.98;99865.62;3317350;83;21539;-73
2021/12/25 07:28:13;;;;;;;5.90;3.52;;;;;;;-7.25;76.27;99857.16;3271350;85;20986;-73
2021/12/25 07:33:05;;;;;;;5.20;3.30;;;;;;;-7.20;76.43;99876.08;3295134;85;23481;-73
2021/12/25 07:37:56;;;;;;;5.17;2.90;;;;;;;-7.16;76.36;99874.26;3294643;85;21027;-73
2021/12/25 07:42:47;;;;;;;8.60;3.60;;;;;;;-7.12;76.35;99881.28;3370276;80;20974;-71
2021/12/25 07:47:51;;;;;;;6.60;3.30;;;;;;;-7.13;76.19;99874.09;3473816;80;20979;-71
2021/12/25 07:52:40;;;;;;;5.22;3.02;;;;;;;-7.14;76.18;99885.35;3475519;80;20920;-71
2021/12/25 07:57:31;;;;;;;5.83;3.72;;;;;;;-7.11;76.25;99895.30;3435281;81;21409;-72
2021/12/25 08:02:22;;;;;;;7.17;3.20;;;;;;;-7.06;76.31;99903.23;3421544;80;28922;-71
2021/12/25 08:07:13;;;;;;;7.58;4.33;;;;;;;-6.99;76.30;99908.33;3444513;80;20994;-71
2021/12/25 08:12:05;;;;;;;9.55;4.17;;;;;;;-6.97;76.18;99905.56;3455550;80;24713;-71
2021/12/25 08:16:59;;;;;;;8.88;4.45;;;;;;;-6.92;76.16;99909.27;3415027;80;21014;-72
2021/12/25 08:21:52;;;;;;;7.03;4.87;;;;;;;-6.91;76.04;99921.16;3451970;79;21069;-71
2021/12/25 08:27:05;;;;;;;8.55;4.28;;;;;;;-6.88;76.14;99924.28;3478757;79;21309;-71
2021/12/25 08:32:14;;;;;;;9.85;5.00;;;;;;;-6.79;76.15;99927.11;3444009;79;20958;-71
2021/12/25 08:37:13;;;;;;;10.95;5.08;;;;;;;-6.69;76.07;99937.89;3449451;81;20969;-71
2021/12/25 08:42:06;;;;;;;8.78;4.72;;;;;;;-6.43;75.76;99945.71;3451137;79;20970;-72
2021/12/25 08:46:59;;;;;;;7.50;4.60;;;;;;;-6.42;75.65;99956.70;3468656;79;21491;-71
2021/12/25 08:51:52;;;;;;;11.05;5.22;;;;;;;-6.43;75.75;99954.56;3471479;81;20970;-71
2021/12/25 08:56:43;;;;;;;5.65;3.42;;;;;;;-6.37;75.78;99962.97;3466889;79;20962;-72
2021/12/25 09:01:35;;;;;;;6.67;3.65;;;;;;;-6.32;75.75;99960.00;3442594;79;20994;-71
2021/12/25 09:06:26;;;;;;;9.73;4.28;;;;;;;-6.26;75.72;99962.11;3496199;80;20982;-71
2021/12/25 09:11:18;;;;;;;16.37;6.05;;;;;;;-6.23;75.65;99971.56;3443037;81;21083;-72
2021/12/25 09:16:09;;;;;;;9.10;5.20;;;;;;;-6.19;75.75;99970.64;3481362;80;20950;-71
2021/12/25 09:21:00;;;;;;;10.03;4.78;;;;;;;-6.11;75.67;99969.03;3509779;80;21428;-71
2021/12/25 09:25:52;;;;;;;8.48;5.58;;;;;;;-6.05;75.69;99969.06;3529945;79;20951;-71
2021/12/25 09:30:43;;;;;;;9.28;4.75;;;;;;;-5.98;75.62;99969.12;3425524;80;20937;-71
2021/12/25 09:35:35;;;;;;;8.20;4.37;;;;;;;-5.90;75.66;99967.98;3502085;79;21453;-72
2021/12/25 09:40:26;;;;;;;11.33;5.22;;;;;;;-5.82;75.68;99975.72;3461015;79;21028;-72
2021/12/25 09:45:17;;;;;;;9.10;5.05;;;;;;;-5.73;75.72;99978.41;3491467;79;20932;-72
2021/12/25 09:50:10;;;;;;;9.78;5.50;;;;;;;-5.65;75.66;99987.40;3565675;79;24252;-73
2021/12/25 09:55:02;;;;;;;9.85;6.08;;;;;;;-5.56;75.81;99984.27;3507896;79;20994;-72
2021/12/25 09:59:53;;;;;;;10.25;5.42;;;;;;;-5.51;75.61;99975.30;3452814;79;21014;-73
2021/12/25 10:04:48;;;;;;;14.05;6.33;;;;;;;-5.44;75.62;99980.41;3530084;79;20982;-72
2021/12/25 10:09:40;;;;;;;10.82;6.17;;;;;;;-5.36;75.71;99983.96;3509945;79;20964;-73
2021/12/25 10:14:31;;;;;;;12.33;6.85;;;;;;;-5.26;75.65;99982.05;3509967;79;21461;-74
2021/12/25 10:19:27;;;;;;;14.35;7.00;;;;;;;-5.20;75.48;99978.68;3512490;79;20966;-74
2021/12/25 10:24:29;;;;;;;14.38;6.80;;;;;;;-5.08;75.62;99982.05;3524550;79;21118;-73
2021/12/25 10:29:28;;;;;;;15.32;7.05;;;;;;;-4.78;75.25;99977.23;3538556;79;21006;-74
2021/12/25 10:34:27;;;;;;;15.30;7.37;;;;;;;-2.92;73.54;99965.05;3573018;79;21483;-74
2021/12/25 10:39:23;;;;;;;11.20;6.75;;;;;;;-2.01;71.40;99977.84;3507165;79;20970;-73
2021/12/25 10:44:18;;;;;;;13.43;8.03;;;;;;;-2.71;72.38;99991.75;3526845;79;20935;-73
2021/12/25 10:49:14;;;;;;;11.95;6.17;;;;;;;-3.07;72.78;99983.71;3518031;79;21065;-73
2021/12/25 10:54:06;;;;;;;10.38;6.33;;;;;;;-3.35;73.04;99985.39;3544412;79;21421;-74
2021/12/25 10:59:12;;;;;;;9.78;6.22;;;;;;;-3.62;72.94;99986.72;3482544;79;21476;-73
2021/12/25 11:04:04;;;;;;;8.23;5.50;;;;;;;-3.72;73.21;99981.84;3552902;79;20970;-73
2021/12/25 11:08:58;;;;;;;9.85;6.15;;;;;;;-2.32;71.83;99978.69;3507872;79;20900;-74
2021/12/25 11:13:53;;;;;;;13.83;7.33;;;;;;;-0.64;69.97;99977.38;3495813;79;20967;-75
2021/12/25 11:19:11;;;;;;;10.43;5.67;;;;;;;0.02;68.99;99982.23;3535631;79;20978;-74
2021/12/25 11:24:10;;;;;;;13.83;8.38;;;;;;;1.22;66.82;99978.69;3544368;79;20935;-73
2021/12/25 11:29:04;;;;;;;12.63;8.53;;;;;;;2.93;65.41;99975.08;3516140;80;20904;-74
2021/12/25 11:33:55;;;;;;;10.98;7.87;;;;;;;3.93;62.94;99969.45;3479610;79;20935;-74
2021/12/25 11:38:45;;;;;;;12.15;7.85;;;;;;;4.04;62.71;99982.65;3513365;79;26860;-74
2021/12/25 11:43:43;;;;;;;10.88;8.15;;;;;;;3.62;62.34;99976.17;3463878;79;21010;-74
2021/12/25 11:48:37;;;;;;;11.25;8.45;;;;;;;3.50;63.07;99982.19;3509860;79;20950;-73
2021/12/25 11:58:55;;;;;;;11.20;7.50;;;;;;;1.87;62.77;99988.20;3547941;78;20951;-72
2021/12/25 12:03:54;;;;;;;;;;;;;;;0.50;64.26;99985.31;3566858;78;21938;-73
2021/12/25 12:09:01;;;;;;;8.60;6.15;;;;;;;-0.45;64.89;99992.81;3568392;78;20223;-73
2021/12/25 12:14:22;;;;;;;12.10;7.15;;;;;;;-1.11;65.58;99992.41;3546044;78;22048;-73
2021/12/25 12:19:38;;;;;;;14.47;7.60;;;;;;;-1.86;67.34;100003.28;3581204;78;20975;-73
2021/12/25 12:24:47;;;;;;;14.68;7.95;;;;;;;-2.42;68.06;100002.73;3558781;79;21002;-71
2021/12/25 12:29:45;;;;;;;13.28;6.37;;;;;;;-2.83;68.52;99998.66;3508480;80;20941;-73
2021/12/25 12:34:40;;;;;;;10.32;4.78;;;;;;;-3.15;69.14;99992.56;3524867;80;21477;-72
2021/12/25 12:39:31;;;;;;;9.48;5.12;;;;;;;-3.41;69.23;99996.06;3458150;80;21512;-72
2021/12/25 12:44:31;;;;;;;13.22;6.75;;;;;;;-3.63;69.84;100005.31;3466955;80;21572;-73
2021/12/25 12:49:49;;;;;;;11.25;7.10;;;;;;;-3.76;70.29;100013.81;3487378;80;21630;-73
2021/12/25 12:54:53;;;;;;;12.03;6.62;;;;;;;-3.87;70.54;100022.02;3539084;79;21004;-72
2021/12/25 12:59:48;;;;;;;13.15;6.55;;;;;;;-3.97;70.66;100027.33;3521887;80;20980;-73
2021/12/25 13:04:49;;;;;;;11.65;7.30;;;;;;;-4.06;70.95;100030.52;3484518;80;21947;-73
2021/12/25 13:09:51;;;;;;;10.60;6.30;;;;;;;-4.12;71.15;100032.69;3458702;79;20996;-73
2021/12/25 13:14:39;;;;;;;10.85;6.37;;;;;;;-4.23;71.18;100043.02;3508938;80;20967;-73
2021/12/25 13:19:30;;;;;;;12.70;6.72;;;;;;;-4.31;71.35;100045.83;3480817;80;21439;-72
2021/12/25 13:24:21;;;;;;;12.13;6.08;;;;;;;-4.37;71.50;100053.92;3538635;80;20856;-72
2021/12/25 13:29:20;;;;;;;13.93;6.33;;;;;;;-4.46;71.58;100068.16;3472763;78;20950;-72
2021/12/25 13:34:18;;;;;;;12.37;5.90;;;;;;;-4.52;71.80;100069.43;3522966;79;21467;-72
2021/12/25 13:39:13;;;;;;;12.40;6.95;;;;;;;-4.61;71.87;100062.95;3539310;79;20970;-72
2021/12/25 13:44:19;;;;;;;13.50;7.75;;;;;;;-4.66;72.12;100061.76;3489996;79;21193;-72
2021/12/25 13:49:40;;;;;;;18.23;7.92;;;;;;;-4.72;72.22;100070.24;3542989;78;21464;-72
2021/12/25 13:54:33;;;;;;;15.68;7.05;;;;;;;-4.80;72.27;100075.17;3508903;79;20958;-72
2021/12/25 13:59:25;;;;;;;12.82;7.10;;;;;;;-4.90;72.39;100081.30;3506842;78;20873;-72
2021/12/25 14:04:16;;;;;;;18.02;7.60;;;;;;;-4.96;72.54;100079.98;3511949;80;21444;-73
2021/12/25 14:09:08;;;;;;;16.50;7.33;;;;;;;-5.08;72.65;100088.52;3472461;80;27478;-72
2021/12/25 14:14:06;;;;;;;12.55;6.58;;;;;;;-5.18;72.81;100096.25;3498116;78;21002;-72
2021/12/25 14:18:57;;;;;;;18.62;9.28;;;;;;;-5.28;72.93;100106.12;3502357;79;20949;-73
2021/12/25 14:24:02;;;;;;;18.87;8.03;;;;;;;-5.36;73.07;100098.39;3449862;80;20946;-74
2021/12/25 14:28:53;;;;;;;16.30;8.63;;;;;;;-5.45;73.16;100097.74;3496989;79;21460;-73
2021/12/25 14:33:58;;;;;;;11.93;5.85;;;;;;;-5.59;73.28;100099.30;3453946;80;25952;-72
2021/12/25 14:38:50;;;;;;;14.68;6.87;;;;;;;-5.68;73.47;100107.50;3444434;79;20954;-73
2021/12/25 14:43:42;;;;;;;19.70;7.42;;;;;;;-5.75;73.73;100114.64;3478913;79;20966;-72
2021/12/25 14:48:41;;;;;;;14.10;7.62;;;;;;;-5.80;73.84;100122.30;3461806;80;20954;-73
2021/12/25 14:53:35;;;;;;;13.03;6.28;;;;;;;-5.88;73.90;100125.94;3492875;79;21560;-73
2021/12/25 14:58:30;;;;;;;20.50;8.60;;;;;;;-5.97;73.97;100134.17;3453459;80;21129;-73
2021/12/25 15:03:23;;;;;;;20.75;9.40;;;;;;;-6.02;74.12;100130.41;3498038;79;20928;-72
2021/12/25 15:08:25;;;;;;;18.42;7.75;;;;;;;-6.07;74.21;100130.45;3463443;79;20940;-72
2021/12/25 15:13:20;;;;;;;22.87;8.23;;;;;;;-6.15;74.27;100132.04;3495055;79;20929;-72
2021/12/25 15:18:23;;;;;;;17.98;7.70;;;;;;;-6.20;74.43;100130.81;3500265;79;20926;-72
2021/12/25 15:23:19;;;;;;;13.95;7.92;;;;;;;-6.25;74.49;100132.13;3470036;80;21469;-73
2021/12/25 15:28:10;;;;;;;26.87;12.28;;;;;;;-6.32;74.60;100138.76;3440065;80;20994;-72
2021/12/25 15:33:08;;;;;;;16.37;9.73;;;;;;;-6.36;74.79;100154.48;3422314;80;20931;-73
2021/12/25 15:38:00;;;;;;;22.37;11.15;;;;;;;-6.41;74.79;100153.25;3441033;80;21038;-73
2021/12/25 15:42:53;;;;;;;19.27;9.20;;;;;;;-6.45;74.97;100158.86;3432565;79;21888;-72
2021/12/25 15:47:46;;;;;;;20.65;10.23;;;;;;;-6.47;75.07;100157.47;3452432;79;21033;-73
2021/12/25 15:52:37;;;;;;;24.12;10.55;;;;;;;-6.53;75.00;100154.11;3465059;79;21543;-72
2021/12/25 15:57:29;;;;;;;23.25;10.95;;;;;;;-6.61;74.92;100156.42;3498590;79;21291;-73
2021/12/25 16:02:23;;;;;;;19.20;10.80;;;;;;;-6.67;75.10;100144.95;3502299;80;25401;-72
2021/12/25 16:07:14;;;;;;;21.37;11.50;;;;;;;-6.78;75.19;100149.19;3455815;80;20958;-73
2021/12/25 16:12:08;;;;;;;21.40;11.73;;;;;;;-6.81;75.31;100154.03;3479654;80;21240;-72
2021/12/25 16:16:59;;;;;;;19.45;10.23;;;;;;;-6.90;75.19;100166.45;3466979;80;20986;-73
2021/12/25 16:21:50;;;;;;;17.82;10.32;;;;;;;-6.97;75.21;100179.37;3494090;79;21002;-72
2021/12/25 16:26:41;;;;;;;21.35;10.15;;;;;;;-7.00;75.45;100177.00;3547486;79;24904;-72
2021/12/25 16:31:34;;;;;;;22.55;10.43;;;;;;;-7.01;75.51;100191.29;3468535;80;21464;-72
2021/12/25 16:36:25;;;;;;;22.20;10.60;;;;;;;-7.03;75.77;100183.94;3498291;79;20957;-72
2021/12/25 16:41:16;;;;;;;23.77;9.83;;;;;;;-6.97;75.88;100185.70;3516429;80;25622;-72
2021/12/25 16:46:11;;;;;;;23.20;11.55;;;;;;;-6.91;75.99;100195.39;3444083;80;22147;-72
2021/12/25 16:51:06;;;;;;;16.82;7.53;;;;;;;-6.82;76.16;100198.63;3474073;80;20927;-72
2021/12/25 16:55:57;;;;;;;19.30;10.95;;;;;;;-6.70;76.32;100197.45;3454253;79;21048;-73
2021/12/25 17:00:49;;;;;;;16.37;8.68;;;;;;;-6.64;76.14;100208.02;3505228;79;20972;-72
2021/12/25 17:05:45;;;;;;;19.17;10.65;;;;;;;-6.62;76.19;100206.48;3526494;79;20999;-72
2021/12/25 17:10:37;;;;;;;23.52;11.38;;;;;;;-6.58;76.23;100203.45;3517942;79;20895;-71
2021/12/25 17:15:31;;;;;;;19.92;11.08;;;;;;;-6.40;76.46;100205.59;3522575;79;20927;-72
2021/12/25 17:20:28;;;;;;;19.90;10.03;;;;;;;-6.19;76.44;100208.52;3522268;79;21908;-72
2021/12/25 17:25:19;;;;;;;13.70;8.00;;;;;;;-6.00;76.22;100197.22;3528719;79;20927;-72
2021/12/25 17:30:15;;;;;;;17.57;9.60;;;;;;;-5.84;76.11;100196.28;3500117;78;21428;-72
2021/12/25 17:35:07;;;;;;;22.27;10.13;;;;;;;-5.72;76.01;100195.41;3528675;78;20954;-72
2021/12/25 17:39:58;;;;;;;21.40;9.93;;;;;;;-5.67;75.89;100200.06;3506780;80;21033;-72
2021/12/25 17:44:52;;;;;;;20.97;10.08;;;;;;;-5.70;75.76;100202.76;3464735;78;21036;-72
2021/12/25 17:49:42;;;;;;;22.22;11.08;;;;;;;-5.77;75.64;100194.69;3501020;78;21981;-72
2021/12/25 17:54:35;;;;;;;16.10;9.48;;;;;;;-5.89;75.52;100205.18;3530952;78;20989;-72
2021/12/25 17:59:27;;;;;;;20.17;9.48;;;;;;;-6.00;75.62;100206.08;3534953;78;20939;-72
2021/12/25 18:04:19;;;;;;;24.77;11.73;;;;;;;-6.10;75.58;100213.74;3496917;79;20970;-72
2021/12/25 18:09:11;;;;;;;23.92;10.35;;;;;;;-6.22;75.57;100216.25;3494942;79;20990;-72
2021/12/25 18:14:02;;;;;;;22.80;11.63;;;;;;;-6.31;75.65;100224.03;3476779;78;22151;-72
2021/12/25 18:18:54;;;;;;;26.75;12.15;;;;;;;-6.40;75.75;100224.20;3502135;79;21733;-72
2021/12/25 18:23:46;;;;;;;29.67;14.25;;;;;;;-6.53;75.72;100216.07;3520125;80;20953;-73
2021/12/25 18:28:38;;;;;;;24.07;12.33;;;;;;;-6.61;75.79;100214.98;3465470;78;20961;-73
2021/12/25 18:33:30;;;;;;;21.73;11.63;;;;;;;-6.70;75.97;100215.15;3458224;78;20912;-72
2021/12/25 18:38:21;;;;;;;21.02;12.43;;;;;;;-6.77;75.88;100216.31;3496695;79;21160;-72
2021/12/25 18:43:12;;;;;;;24.85;13.03;;;;;;;-6.83;76.02;100217.47;3526857;78;21005;-72
2021/12/25 18:48:04;;;;;;;24.97;13.90;;;;;;;-6.88;76.12;100218.39;3467968;79;21024;-72
2021/12/25 18:52:58;;;;;;;26.50;13.30;;;;;;;-6.92;76.13;100223.95;3483893;79;20951;-73
2021/12/25 18:57:50;;;;;;;30.85;13.13;;;;;;;-6.97;76.21;100236.64;3495379;79;20958;-73
2021/12/25 19:02:43;;;;;;;29.98;13.65;;;;;;;-7.02;76.29;100238.79;3469913;79;21194;-75
2021/12/25 19:07:34;;;;;;;28.55;13.22;;;;;;;-7.05;76.16;100241.06;3517918;79;20982;-74
2021/12/25 19:12:28;;;;;;;27.85;14.35;;;;;;;-7.09;76.33;100242.47;3467731;79;21529;-73
2021/12/25 19:17:17;;;;;;;29.75;13.95;;;;;;;-7.10;76.31;100239.45;3520789;79;20965;-72
2021/12/25 19:22:08;;;;;;;32.60;15.13;;;;;;;-7.11;76.35;100247.78;3500471;80;27855;-72
2021/12/25 19:26:59;;;;;;;26.97;13.05;;;;;;;-7.12;76.34;100248.92;3472968;79;21086;-74
2021/12/25 19:31:51;;;;;;;29.85;13.00;;;;;;;-7.11;76.46;100251.97;3527395;79;20943;-73
2021/12/25 19:36:43;;;;;;;28.17;13.70;;;;;;;-7.08;76.42;100250.95;3482362;80;20955;-73
2021/12/25 19:41:35;;;;;;;31.15;15.32;;;;;;;-7.07;76.36;100242.59;3548725;79;20963;-73
2021/12/25 19:46:30;;;;;;;32.03;16.20;;;;;;;-7.15;76.27;100236.94;3502349;79;20987;-73
2021/12/25 19:51:20;;;;;;;28.92;16.10;;;;;;;-7.20;76.29;100245.80;3520758;79;22118;-73
2021/12/25 19:56:11;;;;;;;31.57;14.83;;;;;;;-7.22;76.46;100245.19;3503999;79;21002;-73
2021/12/25 20:01:08;;;;;;;35.85;16.97;;;;;;;-7.22;76.57;100251.50;3540754;79;20964;-73
2021/12/25 20:05:59;;;;;;;31.82;12.78;;;;;;;-7.26;76.25;100256.69;3507675;79;22133;-72
2021/12/25 20:10:52;;;;;;;26.70;13.80;;;;;;;-7.27;76.53;100261.23;3526839;79;20940;-72
2021/12/25 20:15:43;;;;;;;24.95;13.45;;;;;;;-7.29;76.58;100259.84;3535692;79;21631;-72
2021/12/25 20:20:35;;;;;;;28.25;13.50;;;;;;;-7.29;76.51;100276.25;3483842;79;20975;-72
2021/12/25 20:25:27;;;;;;;25.68;13.25;;;;;;;-7.34;76.51;100276.65;3447839;79;21002;-72
2021/12/25 20:30:23;;;;;;;35.78;14.65;;;;;;;-7.40;76.52;100279.56;3508884;79;21548;-72
2021/12/25 20:35:15;;;;;;;27.15;15.10;;;;;;;-7.45;76.54;100280.83;3536509;79;20971;-71
2021/12/25 20:40:12;;;;;;;26.95;13.53;;;;;;;-7.50;76.51;100284.63;3516580;79;20991;-72
2021/12/25 20:50:14;;;;;;;32.40;15.13;;;;;;;-7.64;76.56;100283.48;3524645;79;20461;-73
2021/12/25 20:55:07;;;;;;;28.77;14.45;;;;;;;-7.71;76.53;100292.22;3538085;79;21437;-72
2021/12/25 20:59:58;;;;;;;27.22;13.83;;;;;;;-7.79;76.05;100286.03;3531595;79;21000;-72
2021/12/25 21:04:49;;;;;;;30.12;14.98;;;;;;;-7.87;76.30;100292.95;3531938;79;21069;-72
2021/12/25 21:09:40;;;;;;;30.30;14.75;;;;;;;-7.92;76.33;100295.46;3540485;79;28548;-72
2021/12/25 21:14:31;;;;;;;29.42;14.05;;;;;;;-7.95;76.23;100301.54;3509461;79;20916;-71
2021/12/25 21:19:25;;;;;;;31.12;13.00;;;;;;;-8.01;76.32;100302.27;3536166;79;25437;-72
2021/12/25 21:24:17;;;;;;;22.60;12.47;;;;;;;-8.06;76.34;100299.38;3519340;80;20995;-72
2021/12/25 21:29:08;;;;;;;27.07;14.18;;;;;;;-8.11;76.58;100290.53;3534858;79;20994;-72
2021/12/25 21:34:00;;;;;;;25.60;14.75;;;;;;;-8.19;76.50;100299.09;3480032;79;20987;-72
2021/12/25 21:38:51;;;;;;;30.80;14.83;;;;;;;-8.24;76.63;100298.72;3488055;79;21420;-73
2021/12/25 21:43:45;;;;;;;31.62;15.65;;;;;;;-8.31;76.63;100306.52;3522282;79;20967;-73
2021/12/25 21:48:35;;;;;;;31.20;13.58;;;;;;;-8.39;76.70;100310.89;3449636;79;38831;-73
2021/12/25 21:53:27;;;;;;;32.50;16.90;;;;;;;-8.47;76.49;100315.32;3531987;79;21011;-72
2021/12/25 21:58:19;;;;;;;38.33;15.88;;;;;;;-8.52;76.67;100315.30;3494008;79;21010;-72
2021/12/25 22:03:11;;;;;;;31.35;15.90;;;;;;;-8.56;76.74;100319.58;3495895;80;20951;-71
2021/12/25 22:08:07;;;;;;;33.23;14.58;;;;;;;-8.62;76.25;100324.07;3461968;80;20970;-71
2021/12/25 22:12:58;;;;;;;31.47;15.93;;;;;;;-8.68;76.55;100331.12;3516879;79;21015;-72
2021/12/25 22:17:50;;;;;;;32.83;14.40;;;;;;;-8.78;76.24;100320.98;3551934;79;21451;-72
2021/12/25 22:22:43;;;;;;;34.27;19.55;;;;;;;-8.79;76.66;100311.67;3527448;80;20920;-72
2021/12/25 22:27:34;;;;;;;34.03;16.77;;;;;;;-8.76;76.98;100315.34;3441634;78;20962;-72
2021/12/25 22:32:25;;;;;;;37.33;15.98;;;;;;;-8.73;77.22;100307.15;3536463;79;21425;-72
2021/12/25 22:37:16;;;;;;;40.55;16.45;;;;;;;-8.73;77.11;100312.19;3538274;80;21701;-72
2021/12/25 22:42:08;;;;;;;43.80;21.07;;;;;;;-8.73;77.22;100319.75;3531035;79;24455;-72
2021/12/25 22:46:59;;;;;;;39.88;18.55;;;;;;;-8.74;77.32;100305.02;3496645;80;21010;-72
2021/12/25 22:51:51;;;;;;;39.78;18.48;;;;;;;-8.70;77.40;100313.72;3463910;80;21045;-71
2021/12/25 22:56:42;;;;;;;40.65;18.48;;;;;;;-8.66;77.50;100319.53;3485367;79;20947;-72
2021/12/25 23:01:35;;;;;;;49.77;22.90;;;;;;;-8.61;77.72;100309.47;3419969;79;20978;-70
2021/12/25 23:06:27;;;;;;;31.30;15.00;;;;;;;-8.60;77.61;100312.52;3445298;79;21383;-72
2021/12/25 23:11:23;;;;;;;34.35;15.65;;;;;;;-8.62;77.47;100311.47;3487080;79;21005;-72
2021/12/25 23:16:14;;;;;;;31.73;15.78;;;;;;;-8.67;77.28;100319.04;3456903;79;20955;-72
2021/12/25 23:21:08;;;;;;;28.87;13.95;;;;;;;-8.76;76.96;100314.44;3477218;79;20962;-72
2021/12/25 23:26:00;;;;;;;25.88;12.70;;;;;;;-8.88;76.86;100311.37;3511207;79;22470;-72
2021/12/25 23:30:54;;;;;;;30.12;15.58;;;;;;;-8.90;76.98;100305.70;3488125;80;20990;-72
2021/12/25 23:35:45;;;;;;;33.13;17.00;;;;;;;-8.94;76.65;100313.72;3452101;80;20934;-72
2021/12/25 23:40:39;;;;;;;38.85;16.87;;;;;;;-9.02;76.87;100308.02;3433287;79;20915;-72
2021/12/25 23:45:36;;;;;;;40.30;16.67;;;;;;;-9.03;76.93;100321.35;3454949;80;20944;-72
2021/12/25 23:50:29;;;;;;;41.42;16.57;;;;;;;-9.05;76.84;100323.77;3448563;80;20948;-72
2021/12/25 23:55:22;;;;;;;45.95;17.23;;;;;;;-9.02;76.84;100321.87;3452750;80;21966;-72
